createdAt,value
2023-04-17T00:02:16.846Z,95192.59
2023-04-17T00:04:45.416Z,95158.94
2023-04-17T00:07:13.416Z,95133.59
2023-04-17T00:09:41.183Z,95090.66
2023-04-17T00:12:09.118Z,95087.91
2023-04-17T00:14:36.898Z,95053.63
2023-04-17T00:17:06.110Z,95063.03
2023-04-17T00:19:34.011Z,95034.13
2023-04-17T00:22:01.896Z,95009.72
2023-04-17T00:24:29.788Z,95015.63
2023-04-17T00:26:58.351Z,95004.91
2023-04-17T00:29:26.254Z,95000.69
2023-04-17T00:31:54.184Z,94982.13
2023-04-17T00:34:23.387Z,94967.53
2023-04-17T00:36:51.283Z,94967.69
2023-04-17T00:39:19.043Z,94959.41
2023-04-17T00:41:47.002Z,94946.75
2023-04-17T00:44:14.861Z,94943.50
2023-04-17T00:46:42.720Z,94931.66
2023-04-17T00:49:11.985Z,94933.91
2023-04-17T00:51:41.355Z,94926.28
2023-04-17T00:54:10.307Z,94921.44
2023-04-17T00:56:38.405Z,94902.94
2023-04-17T00:59:09.925Z,94894.47
2023-04-17T01:01:38.051Z,94897.91
2023-04-17T01:04:06.594Z,94919.81
2023-04-17T01:06:34.496Z,94920.63
2023-04-17T01:09:04.109Z,94925.81
2023-04-17T01:11:31.945Z,94896.59
2023-04-17T01:13:59.760Z,94891.06
2023-04-17T01:16:27.715Z,94870.28
2023-04-17T01:18:55.645Z,94856.00
2023-04-17T01:21:23.438Z,94839.94
2023-04-17T01:23:52.974Z,94821.44
2023-04-17T01:26:23.553Z,94795.34
2023-04-17T01:28:53.071Z,94781.06
2023-04-17T01:31:21.165Z,94775.19
2023-04-17T01:33:49.899Z,94760.94
2023-04-17T01:36:18.353Z,94761.75
2023-04-17T01:38:46.569Z,94752.81
2023-04-17T01:41:14.436Z,94748.13
2023-04-17T01:43:45.881Z,94753.31
2023-04-17T01:46:14.536Z,94766.13
2023-04-17T01:48:42.644Z,94756.56
2023-04-17T01:51:10.494Z,94760.13
2023-04-17T01:53:40.460Z,94758.34
2023-04-17T01:56:08.783Z,94742.28
2023-04-17T01:58:36.536Z,94721.53
2023-04-17T02:01:06.226Z,94731.59
2023-04-17T02:03:34.192Z,94720.56
2023-04-17T02:06:02.081Z,94709.53
2023-04-17T02:08:30.518Z,94703.06
2023-04-17T02:10:58.404Z,94692.03
2023-04-17T02:13:26.292Z,94678.72
2023-04-17T02:15:54.545Z,94665.09
2023-04-17T02:18:23.806Z,94647.63
2023-04-17T02:20:51.691Z,94635.94
2023-04-17T02:23:19.492Z,94630.75
2023-04-17T02:25:47.325Z,94627.53
2023-04-17T02:28:15.835Z,94622.34
2023-04-17T02:30:45.680Z,94600.63
2023-04-17T02:33:15.760Z,94583.28
2023-04-17T02:35:44.925Z,94577.78
2023-04-17T02:38:12.771Z,94576.19
2023-04-17T02:40:40.620Z,94578.59
2023-04-17T02:43:08.473Z,94575.38
2023-04-17T02:45:36.680Z,94562.53
2023-04-17T02:48:04.741Z,94561.72
2023-04-17T02:50:32.624Z,94566.09
2023-04-17T02:53:01.749Z,94568.53
2023-04-17T02:55:29.696Z,94572.91
2023-04-17T02:57:57.553Z,94563.34
2023-04-17T03:00:26.368Z,94570.31
2023-04-17T03:02:54.336Z,94550.06
2023-04-17T03:05:23.420Z,94527.25
2023-04-17T03:07:51.361Z,94519.63
2023-04-17T03:10:20.568Z,94510.41
2023-04-17T03:12:48.396Z,94501.19
2023-04-17T03:15:16.209Z,94491.16
2023-04-17T03:17:43.994Z,94483.06
2023-04-17T03:20:12.195Z,94479.50
2023-04-17T03:22:39.975Z,94477.88
2023-04-17T03:25:08.379Z,94463.47
2023-04-17T03:27:38.706Z,94471.06
2023-04-17T03:30:07.900Z,94481.09
2023-04-17T03:32:36.019Z,94496.97
2023-04-17T03:35:04.113Z,94520.59
2023-04-17T03:37:32.418Z,94530.00
2023-04-17T03:40:00.387Z,94530.00
2023-04-17T03:42:28.537Z,94548.47
2023-04-17T03:44:58.540Z,94550.06
2023-04-17T03:47:26.459Z,94570.19
2023-04-17T03:49:54.292Z,94599.50
2023-04-17T03:52:23.691Z,94622.97
2023-04-17T03:54:51.840Z,94638.22
2023-04-17T03:57:19.648Z,94673.53
2023-04-17T03:59:47.462Z,94692.69
2023-04-17T04:02:16.691Z,94741.31
2023-04-17T04:04:44.589Z,94776.69
2023-04-17T04:07:12.669Z,94806.03
2023-04-17T04:09:40.502Z,94854.69
2023-04-17T04:12:08.464Z,94888.16
2023-04-17T04:14:40.422Z,94958.28
2023-04-17T04:17:09.605Z,94990.78
2023-04-17T04:19:38.810Z,95048.09
2023-04-17T04:22:07.079Z,95085.31
2023-04-17T04:24:35.270Z,95114.41
2023-04-17T04:27:05.422Z,95163.81
2023-04-17T04:29:35.131Z,95200.59
2023-04-17T04:32:03.691Z,95238.47
2023-04-17T04:34:31.583Z,95276.38
2023-04-17T04:37:01.330Z,95341.47
2023-04-17T04:39:29.978Z,95397.03
2023-04-17T04:42:05.869Z,95442.59
2023-04-17T04:44:33.702Z,95474.38
2023-04-17T04:47:01.688Z,95519.34
2023-04-17T04:49:29.606Z,95581.91
2023-04-17T04:51:57.436Z,95624.00
2023-04-17T04:54:26.548Z,95675.53
2023-04-17T04:56:54.328Z,95730.69
2023-04-17T04:59:22.156Z,95767.88
2023-04-17T05:01:50.642Z,95794.97
2023-04-17T05:04:18.656Z,95833.84
2023-04-17T05:06:46.542Z,95885.44
2023-04-17T05:09:16.707Z,95922.00
2023-04-17T05:11:46.123Z,95910.16
2023-04-17T05:14:13.930Z,96031.34
2023-04-17T05:16:41.881Z,96070.78
2023-04-17T05:19:09.802Z,96127.53
2023-04-17T05:21:37.856Z,96197.38
2023-04-17T05:24:05.762Z,96273.50
2023-04-17T05:26:33.551Z,96377.03
2023-04-17T05:29:03.066Z,96495.03
2023-04-17T05:31:31.179Z,96645.56
2023-04-17T05:33:59.066Z,96845.44
2023-04-17T05:36:27.796Z,97039.75
2023-04-17T05:38:56.927Z,97205.03
2023-04-17T05:41:24.799Z,97392.84
2023-04-17T05:43:52.657Z,97541.63
2023-04-17T05:46:22.243Z,97725.66
2023-04-17T05:48:50.042Z,97882.34
2023-04-17T05:51:17.996Z,98022.13
2023-04-17T05:53:45.827Z,98137.97
2023-04-17T05:56:13.649Z,98295.19
2023-04-17T05:58:41.458Z,98421.44
2023-04-17T06:01:10.344Z,98486.78
2023-04-17T06:03:39.970Z,98632.94
2023-04-17T06:06:08.872Z,98798.53
2023-04-17T06:08:36.705Z,98888.16
2023-04-17T06:11:04.518Z,98989.00
2023-04-17T06:13:32.308Z,99142.78
2023-04-17T06:16:00.202Z,99326.84
2023-04-17T06:18:28.668Z,99371.97
2023-04-17T06:20:58.551Z,99415.22
2023-04-17T06:23:26.524Z,99597.94
2023-04-17T06:25:54.312Z,99589.16
2023-04-17T06:28:22.376Z,99728.78
2023-04-17T06:30:51.981Z,99860.53
2023-04-17T06:33:24.537Z,99979.50
2023-04-17T06:35:53.910Z,99971.75
2023-04-17T06:38:23.111Z,100103.59
2023-04-17T06:40:52.731Z,100131.63
2023-04-17T06:43:20.837Z,100062.88
2023-04-17T06:45:49.171Z,100237.34
2023-04-17T06:48:17.214Z,100339.34
2023-04-17T06:50:44.986Z,100394.16
2023-04-17T06:53:12.841Z,100407.41
2023-04-17T06:55:42.118Z,100465.63
2023-04-17T06:58:10.115Z,100417.19
2023-04-17T07:00:37.928Z,100537.13
2023-04-17T07:03:06.072Z,100564.97
2023-04-17T07:05:33.933Z,100588.72
2023-04-17T07:08:01.772Z,100735.97
2023-04-17T07:10:29.685Z,100864.88
2023-04-17T07:13:00.546Z,100898.13
2023-04-17T07:15:30.771Z,101102.50
2023-04-17T07:17:59.092Z,101100.78
2023-04-17T07:20:28.692Z,101210.03
2023-04-17T07:22:57.602Z,101210.16
2023-04-17T07:25:26.501Z,101216.34
2023-04-17T07:27:54.664Z,101260.13
2023-04-17T07:30:23.904Z,101385.97
2023-04-17T07:32:52.670Z,101596.38
2023-04-17T07:35:21.240Z,101641.00
2023-04-17T07:37:49.069Z,101815.59
2023-04-17T07:40:17.267Z,101681.50
2023-04-17T07:42:45.132Z,101735.88
2023-04-17T07:45:13.053Z,101955.16
2023-04-17T07:47:42.802Z,101981.75
2023-04-17T07:50:10.911Z,102082.59
2023-04-17T07:52:38.995Z,102222.38
2023-04-17T07:55:07.363Z,102224.31
2023-04-17T07:57:35.367Z,102174.06
2023-04-17T08:00:04.580Z,102071.31
2023-04-17T08:02:32.508Z,102262.09
2023-04-17T08:05:02.246Z,102324.53
2023-04-17T08:07:30.118Z,102302.72
2023-04-17T08:09:58.142Z,102534.94
2023-04-17T08:12:25.977Z,102577.34
2023-04-17T08:14:53.747Z,102834.88
2023-04-17T08:17:23.467Z,102857.88
2023-04-17T08:19:53.534Z,102939.88
2023-04-17T08:22:24.257Z,102990.38
2023-04-17T08:24:54.770Z,103036.13
2023-04-17T08:27:22.579Z,103292.78
2023-04-17T08:29:50.504Z,103041.69
2023-04-17T08:32:18.422Z,103228.00
2023-04-17T08:34:46.842Z,103487.56
2023-04-17T08:37:14.687Z,103623.19
2023-04-17T08:39:43.829Z,103857.34
2023-04-17T08:42:17.481Z,103743.78
2023-04-17T08:44:46.533Z,103932.06
2023-04-17T08:47:14.637Z,103888.50
2023-04-17T08:49:44.001Z,103964.84
2023-04-17T08:52:12.236Z,104181.81
2023-04-17T08:54:40.027Z,104238.75
2023-04-17T08:57:09.208Z,104135.63
2023-04-17T08:59:37.041Z,104395.28
2023-04-17T09:02:06.365Z,104261.00
2023-04-17T09:04:39.366Z,104650.13
2023-04-17T09:07:07.757Z,104444.28
2023-04-17T09:09:52.900Z,104742.09
2023-04-17T09:12:23.481Z,104577.94
2023-04-17T09:14:51.768Z,104777.63
2023-04-17T09:17:21.480Z,104885.56
2023-04-17T09:20:06.508Z,104710.69
2023-04-17T09:22:35.407Z,104814.34
2023-04-17T09:25:03.294Z,104908.91
2023-04-17T09:27:32.546Z,105101.81
2023-04-17T09:30:02.624Z,105198.47
2023-04-17T09:32:34.686Z,105063.44
2023-04-17T09:35:05.024Z,105557.28
2023-04-17T09:37:50.011Z,105229.84
2023-04-17T09:40:18.711Z,105664.78
2023-04-17T09:42:57.258Z,105734.78
2023-04-17T09:45:26.138Z,105969.06
2023-04-17T09:47:56.241Z,105951.97
2023-04-17T09:50:25.546Z,106155.88
2023-04-17T09:52:55.989Z,106328.66
2023-04-17T09:55:26.667Z,106363.59
2023-04-17T09:57:57.788Z,106331.09
2023-04-17T10:00:27.594Z,106559.84
2023-04-17T10:02:57.657Z,106601.25
2023-04-17T10:05:27.107Z,106684.19
2023-04-17T10:07:55.008Z,106746.34
2023-04-17T10:10:24.549Z,106501.25
2023-04-17T10:12:57.268Z,106625.59
2023-04-17T10:15:26.081Z,106652.44
2023-04-17T10:17:56.486Z,106990.75
2023-04-17T10:20:35.407Z,107248.19
2023-04-17T10:23:27.696Z,107280.69
2023-04-17T10:26:43.223Z,107220.16
2023-04-17T10:29:13.347Z,106989.72
2023-04-17T10:32:16.553Z,107194.75
2023-04-17T10:34:44.415Z,107682.47
2023-04-17T10:37:15.325Z,107600.03
2023-04-17T10:40:10.856Z,107322.00
2023-04-17T10:42:38.670Z,107041.97
2023-04-17T10:45:20.076Z,107056.34
2023-04-17T10:47:59.585Z,107103.28
2023-04-17T10:50:29.259Z,107397.06
2023-04-17T10:52:57.130Z,107295.66
2023-04-17T10:55:27.857Z,107685.81
2023-04-17T10:57:59.036Z,107519.06
2023-04-17T11:00:34.542Z,108105.69
2023-04-17T11:03:03.441Z,107824.50
2023-04-17T11:05:32.365Z,107788.94
2023-04-17T11:08:00.588Z,107379.59
2023-04-17T11:10:28.574Z,107435.72
2023-04-17T11:12:56.857Z,107640.50
2023-04-17T11:15:29.207Z,107756.16
2023-04-17T11:18:00.109Z,108268.00
2023-04-17T11:20:30.506Z,107028.84
2023-04-17T11:23:01.405Z,106916.69
2023-04-17T11:25:31.504Z,107263.81
2023-04-17T11:28:00.816Z,106999.69
2023-04-17T11:30:30.900Z,107351.09
2023-04-17T11:33:02.255Z,107314.00
2023-04-17T11:35:32.175Z,107479.53
2023-04-17T11:38:12.069Z,107585.38
2023-04-17T11:40:44.609Z,107891.84
2023-04-17T11:43:13.341Z,108286.69
2023-04-17T11:45:43.240Z,107814.66
2023-04-17T11:48:14.508Z,107861.81
2023-04-17T11:50:43.673Z,107519.16
2023-04-17T11:53:15.382Z,107373.47
2023-04-17T11:55:43.381Z,107392.38
2023-04-17T11:58:15.076Z,107662.16
2023-04-17T12:00:43.698Z,107968.56
2023-04-17T12:03:35.898Z,107829.75
2023-04-17T12:06:06.574Z,107736.41
2023-04-17T12:08:43.374Z,107991.03
2023-04-17T12:11:20.275Z,107861.38
2023-04-17T12:13:48.212Z,108283.47
2023-04-17T12:16:16.065Z,108176.22
2023-04-17T12:18:45.955Z,107940.16
2023-04-17T12:21:13.913Z,107485.16
2023-04-17T12:23:42.300Z,107591.94
2023-04-17T12:26:10.532Z,107472.28
2023-04-17T12:28:39.003Z,107820.22
2023-04-17T12:31:07.185Z,107683.31
2023-04-17T12:33:35.372Z,107597.16
2023-04-17T12:36:06.527Z,107735.69
2023-04-17T12:38:34.441Z,107773.78
2023-04-17T12:41:02.291Z,107292.06
2023-04-17T12:43:30.105Z,107538.16
2023-04-17T12:45:58.432Z,107486.44
2023-04-17T12:48:26.457Z,107166.19
2023-04-17T12:50:54.572Z,107891.44
2023-04-17T12:53:23.902Z,108001.19
2023-04-17T12:55:51.863Z,107938.56
2023-04-17T12:58:19.683Z,107953.84
2023-04-17T13:00:48.057Z,107833.28
2023-04-17T13:03:16.153Z,107689.91
2023-04-17T13:05:44.558Z,107659.91
2023-04-17T13:08:15.194Z,107241.84
2023-04-17T13:10:44.397Z,107262.47
2023-04-17T13:13:12.636Z,107552.84
2023-04-17T13:15:40.637Z,107380.97
2023-04-17T13:18:10.529Z,107792.09
2023-04-17T13:20:38.782Z,107069.00
2023-04-17T13:23:06.631Z,107290.34
2023-04-17T13:25:34.575Z,107424.19
2023-04-17T13:28:03.894Z,107435.03
2023-04-17T13:30:32.350Z,107847.16
2023-04-17T13:33:03.370Z,107959.66
2023-04-17T13:35:31.230Z,107889.75
2023-04-17T13:38:02.227Z,107882.53
2023-04-17T13:40:30.110Z,107518.00
2023-04-17T13:42:58.524Z,107317.22
2023-04-17T13:45:27.720Z,107509.16
2023-04-17T13:47:55.911Z,107369.47
2023-04-17T13:50:23.967Z,107510.63
2023-04-17T13:52:51.726Z,107749.72
2023-04-17T13:55:19.608Z,107933.81
2023-04-17T13:57:47.379Z,107844.97
2023-04-17T14:00:17.276Z,107858.53
2023-04-17T14:02:49.222Z,107909.28
2023-04-17T14:05:17.361Z,107541.22
2023-04-17T14:07:45.639Z,107530.25
2023-04-17T14:10:13.653Z,107599.94
2023-04-17T14:12:41.646Z,107843.75
2023-04-17T14:15:10.473Z,108155.84
2023-04-17T14:17:42.839Z,107619.72
2023-04-17T14:20:15.152Z,107613.31
2023-04-17T14:22:43.087Z,107516.38
2023-04-17T14:25:11.290Z,107577.09
2023-04-17T14:27:39.790Z,107542.59
2023-04-17T14:30:09.113Z,107357.97
2023-04-17T14:32:38.455Z,107247.44
2023-04-17T14:35:07.349Z,107476.31
2023-04-17T14:37:36.523Z,107497.16
2023-04-17T14:40:05.075Z,107269.06
2023-04-17T14:42:38.090Z,106748.94
2023-04-17T14:45:15.392Z,106537.94
2023-04-17T14:47:44.128Z,106168.06
2023-04-17T14:50:12.519Z,106243.56
2023-04-17T14:52:41.866Z,106482.84
2023-04-17T14:55:11.381Z,106397.31
2023-04-17T14:57:40.426Z,106639.53
2023-04-17T15:00:09.543Z,106620.56
2023-04-17T15:02:39.546Z,106047.34
2023-04-17T15:05:08.614Z,106150.72
2023-04-17T15:07:36.808Z,106220.81
2023-04-17T15:10:07.043Z,106300.88
2023-04-17T15:12:34.801Z,106302.47
2023-04-17T15:15:02.613Z,106039.97
2023-04-17T15:17:30.628Z,106102.81
2023-04-17T15:20:00.686Z,106257.38
2023-04-17T15:22:28.552Z,106133.38
2023-04-17T15:24:56.392Z,105936.59
2023-04-17T15:27:25.799Z,105742.84
2023-04-17T15:29:53.825Z,104935.69
2023-04-17T15:32:21.872Z,104336.50
2023-04-17T15:34:49.773Z,103749.16
2023-04-17T15:37:17.693Z,103620.50
2023-04-17T15:39:45.557Z,103536.09
2023-04-17T15:42:13.319Z,103213.28
2023-04-17T15:44:42.640Z,103225.66
2023-04-17T15:47:10.442Z,103438.81
2023-04-17T15:49:38.404Z,103525.59
2023-04-17T15:52:06.872Z,103947.50
2023-04-17T15:54:34.801Z,104288.09
2023-04-17T15:57:02.729Z,104594.28
2023-04-17T15:59:32.021Z,104525.81
2023-04-17T16:02:01.492Z,104104.75
2023-04-17T16:04:29.917Z,103858.81
2023-04-17T16:06:57.900Z,103754.88
2023-04-17T16:09:25.678Z,103636.88
2023-04-17T16:11:54.760Z,103176.81
2023-04-17T16:14:22.600Z,102842.59
2023-04-17T16:16:50.518Z,102444.38
2023-04-17T16:19:19.733Z,102102.41
2023-04-17T16:21:47.681Z,101876.56
2023-04-17T16:24:15.419Z,101664.34
2023-04-17T16:26:44.060Z,101444.41
2023-04-17T16:29:12.037Z,101264.25
2023-04-17T16:31:40.137Z,101149.63
2023-04-17T16:34:09.625Z,101007.38
2023-04-17T16:36:38.914Z,100845.00
2023-04-17T16:39:08.645Z,100786.63
2023-04-17T16:41:36.706Z,100706.28
2023-04-17T16:44:05.352Z,100647.22
2023-04-17T16:46:45.694Z,100577.38
2023-04-17T16:49:21.010Z,100465.00
2023-04-17T16:51:50.229Z,100421.63
2023-04-17T16:54:19.374Z,100382.47
2023-04-17T16:56:48.237Z,100334.41
2023-04-17T16:59:17.466Z,100277.53
2023-04-17T17:01:49.750Z,100225.97
2023-04-17T17:04:18.193Z,100197.28
2023-04-17T17:06:46.265Z,100149.41
2023-04-17T17:09:15.659Z,100069.47
2023-04-17T17:11:43.607Z,100017.38
2023-04-17T17:14:11.645Z,99977.50
2023-04-17T17:16:41.054Z,99928.34
2023-04-17T17:19:09.007Z,99825.69
2023-04-17T17:21:36.962Z,99783.19
2023-04-17T17:24:05.441Z,99753.72
2023-04-17T17:26:35.614Z,99718.16
2023-04-17T17:29:03.770Z,99666.03
2023-04-17T17:31:31.734Z,99628.19
2023-04-17T17:34:11.852Z,99583.81
2023-04-17T17:36:48.913Z,99525.81
2023-04-17T17:39:16.942Z,99478.25
2023-04-17T17:41:47.529Z,99408.00
2023-04-17T17:44:15.781Z,99345.91
2023-04-17T17:46:43.623Z,99330.97
2023-04-17T17:49:11.707Z,99262.16
2023-04-17T17:51:39.620Z,99202.59
2023-04-17T17:54:07.963Z,99160.28
2023-04-17T17:56:35.852Z,99132.78
2023-04-17T17:59:05.172Z,99095.34
2023-04-17T18:01:33.327Z,99049.53
2023-04-17T18:04:01.366Z,99029.84
2023-04-17T18:06:29.399Z,99001.13
2023-04-17T18:08:58.732Z,98956.72
2023-04-17T18:11:27.270Z,98923.81
2023-04-17T18:13:55.276Z,98916.00
2023-04-17T18:16:24.960Z,98882.22
2023-04-17T18:18:52.996Z,98866.88
2023-04-17T18:21:20.995Z,98841.09
2023-04-17T18:23:48.874Z,98746.13
2023-04-17T18:26:16.764Z,98725.69
2023-04-17T18:28:44.550Z,98659.94
2023-04-17T18:31:12.616Z,98610.09
2023-04-17T18:33:42.270Z,98552.44
2023-04-17T18:36:10.335Z,98507.09
2023-04-17T18:38:38.425Z,98482.75
2023-04-17T18:41:06.599Z,98446.56
2023-04-17T18:43:34.873Z,98391.50
2023-04-17T18:46:04.745Z,98357.56
2023-04-17T18:48:32.482Z,98335.88
2023-04-17T18:51:11.499Z,98306.69
2023-04-17T18:53:39.389Z,98274.88
2023-04-17T18:56:08.597Z,98233.59
2023-04-17T18:58:37.757Z,98252.53
2023-04-17T19:01:06.511Z,98240.41
2023-04-17T19:03:34.754Z,98224.16
2023-04-17T19:06:02.823Z,98182.78
2023-04-17T19:08:32.021Z,98163.03
2023-04-17T19:10:59.892Z,98119.13
2023-04-17T19:13:28.058Z,98097.22
2023-04-17T19:15:56.132Z,98054.91
2023-04-17T19:18:24.101Z,98038.66
2023-04-17T19:20:52.024Z,98004.22
2023-04-17T19:23:44.913Z,97964.03
2023-04-17T19:26:39.420Z,97892.88
2023-04-17T19:29:07.260Z,97833.69
2023-04-17T19:31:35.267Z,97790.03
2023-04-17T19:34:03.235Z,97754.84
2023-04-17T19:36:31.123Z,97730.91
2023-04-17T19:38:59.797Z,97706.22
2023-04-17T19:41:27.654Z,97668.59
2023-04-17T19:43:56.827Z,97640.22
2023-04-17T19:46:26.116Z,97612.13
2023-04-17T19:48:54.180Z,97572.81
2023-04-17T19:51:22.217Z,97536.84
2023-04-17T19:53:49.915Z,97494.91
2023-04-17T19:56:17.922Z,97464.22
2023-04-17T19:58:45.768Z,97465.88
2023-04-17T20:01:15.533Z,97427.59
2023-04-17T20:03:45.446Z,97404.38
2023-04-17T20:06:13.926Z,97398.28
2023-04-17T20:08:41.775Z,97384.72
2023-04-17T20:11:12.157Z,97367.44
2023-04-17T20:13:40.398Z,97375.88
2023-04-17T20:16:08.576Z,97377.00
2023-04-17T20:18:38.208Z,97362.34
2023-04-17T20:21:07.120Z,97350.47
2023-04-17T20:23:35.035Z,97326.72
2023-04-17T20:26:03.380Z,97308.59
2023-04-17T20:28:31.403Z,97322.28
2023-04-17T20:30:59.288Z,97316.34
2023-04-17T20:33:27.175Z,97316.19
2023-04-17T20:35:56.379Z,97306.97
2023-04-17T20:38:24.216Z,97279.59
2023-04-17T20:40:51.996Z,97260.66
2023-04-17T20:43:19.727Z,97248.78
2023-04-17T20:45:48.422Z,97179.94
2023-04-17T20:48:16.572Z,97187.38
2023-04-17T20:50:44.414Z,97192.47
2023-04-17T20:53:13.627Z,97193.44
2023-04-17T20:55:41.400Z,97175.50
2023-04-17T20:58:09.274Z,97122.63
2023-04-17T21:00:42.042Z,97072.13
2023-04-17T21:03:15.509Z,97029.66
2023-04-17T21:05:43.470Z,97003.19
2023-04-17T21:08:12.831Z,97026.19
2023-04-17T21:10:41.338Z,96992.16
2023-04-17T21:13:09.548Z,96947.75
2023-04-17T21:15:37.358Z,96953.97
2023-04-17T21:18:05.360Z,96908.63
2023-04-17T21:20:33.264Z,96870.31
2023-04-17T21:23:01.277Z,96822.66
2023-04-17T21:25:30.400Z,96819.34
2023-04-17T21:27:58.252Z,96810.81
2023-04-17T21:30:27.440Z,96779.28
2023-04-17T21:32:56.062Z,96738.38
2023-04-17T21:35:24.020Z,96706.84
2023-04-17T21:37:51.858Z,96672.06
2023-04-17T21:40:19.866Z,96644.09
2023-04-17T21:42:49.000Z,96598.03
2023-04-17T21:45:17.291Z,96586.06
2023-04-17T21:47:45.087Z,96568.34
2023-04-17T21:50:13.000Z,96542.75
2023-04-17T21:52:41.248Z,96512.22
2023-04-17T21:55:09.818Z,96477.47
2023-04-17T21:57:37.574Z,96439.13
2023-04-17T22:00:11.615Z,96402.69
2023-04-17T22:02:39.877Z,96369.75
2023-04-17T22:05:08.222Z,96339.13
2023-04-17T22:07:47.303Z,96297.34
2023-04-17T22:10:22.011Z,96283.25
2023-04-17T22:12:49.881Z,96248.25
2023-04-17T22:15:19.332Z,96223.81
2023-04-17T22:17:47.316Z,96194.03
2023-04-17T22:20:15.572Z,96174.41
2023-04-17T22:23:38.221Z,96155.09
2023-04-17T22:27:01.317Z,96132.19
2023-04-17T22:30:23.985Z,96116.78
2023-04-17T22:33:47.445Z,96110.22
2023-04-17T22:37:10.197Z,96081.44
2023-04-17T22:40:32.817Z,96055.94
2023-04-17T22:43:55.847Z,96041.41
2023-04-17T22:46:25.251Z,96044.84
2023-04-17T22:48:53.486Z,96049.09
2023-04-17T22:51:21.392Z,96037.63
2023-04-17T22:53:49.437Z,96018.69
2023-04-17T22:56:17.387Z,96017.81
2023-04-17T22:58:45.401Z,96006.88
2023-04-17T23:01:13.414Z,95983.03
2023-04-17T23:03:42.791Z,95963.72
2023-04-17T23:06:11.332Z,95947.41
2023-04-17T23:08:39.285Z,95939.06
2023-04-17T23:11:07.674Z,95911.25
2023-04-17T23:13:37.378Z,95841.28
2023-04-17T23:16:05.494Z,95857.03
2023-04-17T23:18:33.368Z,95841.84
2023-04-17T23:21:02.580Z,95822.59
2023-04-17T23:23:30.378Z,95813.78
2023-04-17T23:25:58.462Z,95811.34
2023-04-17T23:28:30.427Z,95813.78
2023-04-17T23:30:58.661Z,95819.81
2023-04-17T23:33:26.761Z,95830.75
2023-04-17T23:35:54.503Z,95826.34
2023-04-17T23:38:23.781Z,95823.91
2023-04-17T23:40:51.789Z,95824.72
2023-04-17T23:43:19.570Z,95827.50
2023-04-17T23:45:47.640Z,95809.66
2023-04-17T23:48:15.421Z,95799.53
2023-04-17T23:50:43.294Z,95788.28
2023-04-17T23:53:11.272Z,95767.06
2023-04-17T23:55:40.762Z,95764.47
2023-04-17T23:58:09.050Z,95774.09
